Time;durP1;ratioP1;P1;durP2;ratioP2;P2;SDS_P1;SDS_P2;PMS_P1;PMS_P2;Temp;Humidity;BMP_temperature;BMP_pressure;BME280_temperature;BME280_humidity;BME280_pressure;Samples;Min_cycle;Max_cycle;Signal;HPM_P1;HPM_P2
2022/04/03 00:00:28;;;;;;;3.20;1.02;;;;;;;-1.66;45.33;102172.75;5026334;28;20477;-79
2022/04/03 00:02:53;;;;;;;4.43;1.10;;;;;;;-1.80;45.01;102164.66;5004606;28;20044;-80
2022/04/03 00:05:19;;;;;;;2.55;1.25;;;;;;;-1.81;45.34;102175.69;5025872;28;20033;-80
2022/04/03 00:07:48;;;;;;;4.15;1.23;;;;;;;-1.91;45.88;102167.66;5024972;28;20049;-80
2022/04/03 00:10:17;;;;;;;2.35;0.60;;;;;;;-1.95;45.74;102163.28;5028072;28;20113;-80
2022/04/03 00:12:46;;;;;;;1.63;0.77;;;;;;;-1.93;45.70;102159.94;5045121;28;20502;-80
2022/04/03 00:15:14;;;;;;;1.05;0.40;;;;;;;-1.77;45.32;102158.75;5007141;28;20035;-81
2022/04/03 00:17:41;;;;;;;1.42;0.35;;;;;;;-1.74;45.21;102151.13;5042223;28;20203;-82
2022/04/03 00:20:08;;;;;;;1.27;0.50;;;;;;;-1.84;45.13;102157.66;5008700;28;20032;-83
2022/04/03 00:22:34;;;;;;;1.67;0.70;;;;;;;-1.97;44.93;102160.66;5026055;28;20087;-81
2022/04/03 00:25:00;;;;;;;2.55;0.47;;;;;;;-2.06;45.65;102161.22;5046132;28;20032;-79
2022/04/03 00:27:25;;;;;;;1.25;0.45;;;;;;;-1.95;45.49;102155.59;5042385;28;20044;-80
2022/04/03 00:29:51;;;;;;;1.60;0.45;;;;;;;-1.91;45.24;102154.84;5041238;28;20041;-81
2022/04/03 00:32:16;;;;;;;2.55;0.80;;;;;;;-1.99;45.11;102151.19;5024824;28;20469;-81
2022/04/03 00:34:42;;;;;;;2.60;0.85;;;;;;;-2.17;45.46;102151.44;5042634;28;20021;-81
2022/04/03 00:37:07;;;;;;;1.58;0.43;;;;;;;-2.13;45.83;102154.16;5026295;28;20067;-79
2022/04/03 00:39:33;;;;;;;3.83;1.08;;;;;;;-2.09;45.63;102150.00;5033035;28;20051;-80
2022/04/03 00:41:59;;;;;;;2.22;1.42;;;;;;;-2.02;45.79;102150.25;5027009;28;20041;-82
2022/04/03 00:44:25;;;;;;;2.00;0.95;;;;;;;-2.04;45.88;102153.59;5024684;28;20027;-83
2022/04/03 00:46:51;;;;;;;3.17;0.65;;;;;;;-2.02;45.80;102152.81;5026759;28;20040;-82
2022/04/03 00:49:16;;;;;;;2.78;1.25;;;;;;;-1.94;46.04;102145.38;5026529;28;20060;-80
2022/04/03 00:51:42;;;;;;;5.93;1.38;;;;;;;-1.73;45.96;102144.31;5020158;28;20024;-82
2022/04/03 00:54:08;;;;;;;3.83;1.05;;;;;;;-1.53;45.85;102139.78;5004783;28;20566;-79
2022/04/03 00:56:34;;;;;;;2.03;0.82;;;;;;;-1.38;45.46;102138.56;5045850;28;20043;-81
2022/04/03 00:59:00;;;;;;;1.73;0.80;;;;;;;-1.26;45.60;102142.34;5023563;28;20075;-80
2022/04/03 01:01:26;;;;;;;3.03;0.70;;;;;;;-1.17;45.58;102138.34;5021717;28;20068;-81
2022/04/03 01:03:51;;;;;;;2.95;0.40;;;;;;;-1.06;45.23;102131.00;5022771;28;20095;-79
2022/04/03 01:06:17;;;;;;;1.95;1.20;;;;;;;-0.96;45.08;102142.38;5027183;28;20053;-80
2022/04/03 01:08:42;;;;;;;1.88;0.68;;;;;;;-1.31;45.10;102146.44;5040324;28;20111;-76
2022/04/03 01:11:11;;;;;;;1.00;0.50;;;;;;;-1.07;44.75;102146.31;5003326;28;20570;-81
2022/04/03 01:13:47;;;;;;;2.53;0.88;;;;;;;-0.92;44.88;102149.34;5042023;28;20041;-79
2022/04/03 01:16:13;;;;;;;3.92;1.13;;;;;;;-0.94;45.09;102150.13;5024822;28;20029;-80
2022/04/03 01:18:38;;;;;;;3.53;0.40;;;;;;;-0.73;45.44;102148.13;5042322;28;20674;-80
2022/04/03 01:21:04;;;;;;;1.33;0.50;;;;;;;-0.50;45.29;102142.75;5022473;28;20056;-79
2022/04/03 01:23:30;;;;;;;2.60;0.55;;;;;;;-0.49;45.50;102129.09;5030274;28;20045;-79
2022/04/03 01:25:56;;;;;;;2.20;0.57;;;;;;;-0.49;45.58;102135.09;5018328;28;20083;-81
2022/04/03 01:28:23;;;;;;;1.85;0.30;;;;;;;-0.27;45.37;102133.09;5025519;28;20045;-79
2022/04/03 01:30:48;;;;;;;2.55;0.40;;;;;;;-0.26;45.29;102129.66;5015822;28;20506;-80
2022/04/03 01:33:14;;;;;;;0.98;0.30;;;;;;;-0.14;45.20;102138.56;5017782;28;20041;-80
2022/04/03 01:35:39;;;;;;;2.80;0.60;;;;;;;-0.10;45.31;102128.34;5025887;28;20569;-81
2022/04/03 01:38:05;;;;;;;2.72;0.60;;;;;;;-0.29;45.55;102122.75;5041280;28;20076;-81
2022/04/03 01:40:34;;;;;;;2.10;0.40;;;;;;;-0.24;45.89;102131.44;5025316;28;20037;-77
2022/04/03 01:43:00;;;;;;;2.38;0.45;;;;;;;-0.24;45.86;102126.31;5002846;28;20037;-81
2022/04/03 01:45:25;;;;;;;1.15;0.35;;;;;;;-0.21;45.87;102126.41;5024568;28;20043;-80
2022/04/03 01:47:51;;;;;;;1.15;0.22;;;;;;;-0.25;46.20;102123.72;5023679;28;20044;-80
2022/04/03 01:50:17;;;;;;;3.08;0.30;;;;;;;-0.25;46.30;102122.00;5026719;28;20037;-76
2022/04/03 01:52:42;;;;;;;1.80;0.60;;;;;;;-0.28;47.25;102123.63;5024532;28;20044;-79
2022/04/03 01:55:08;;;;;;;2.15;0.40;;;;;;;-0.15;46.74;102123.97;5025875;28;20063;-80
2022/04/03 01:57:33;;;;;;;0.93;0.30;;;;;;;-0.07;46.80;102119.03;5038858;28;20037;-79
2022/04/03 01:59:59;;;;;;;1.75;0.47;;;;;;;-0.01;46.72;102113.16;5007059;28;20024;-80
2022/04/03 02:02:24;;;;;;;1.10;0.30;;;;;;;-0.13;46.53;102111.16;5022641;28;20051;-80
2022/04/03 02:04:50;;;;;;;1.92;0.30;;;;;;;-0.20;46.58;102110.13;5024992;28;20037;-79
2022/04/03 02:07:15;;;;;;;1.65;0.30;;;;;;;-0.25;47.05;102109.16;5042867;28;20045;-82
2022/04/03 02:09:42;;;;;;;1.40;0.45;;;;;;;-0.31;46.94;102109.00;5020343;28;20035;-76
2022/04/03 02:12:09;;;;;;;1.63;0.20;;;;;;;-0.37;47.45;102108.84;5006255;28;20041;-79
2022/04/03 02:14:34;;;;;;;2.28;0.38;;;;;;;-0.39;47.44;102102.81;5049411;28;20037;-81
2022/04/03 02:17:00;;;;;;;5.20;0.30;;;;;;;-0.41;47.65;102104.47;5040586;28;20051;-81
2022/04/03 02:19:26;;;;;;;1.15;0.40;;;;;;;-0.44;47.60;102104.38;5024499;28;20056;-80
2022/04/03 02:21:51;;;;;;;1.33;0.30;;;;;;;-0.44;47.99;102101.81;5026534;28;20041;-79
2022/04/03 02:24:18;;;;;;;1.38;0.20;;;;;;;-0.52;49.32;102103.34;5050792;28;20032;-79
2022/04/03 02:26:44;;;;;;;2.80;0.30;;;;;;;-0.57;49.61;102096.38;5043651;28;20044;-80
2022/04/03 02:29:09;;;;;;;1.23;0.22;;;;;;;-0.35;49.06;102087.53;5030110;28;20036;-79
2022/04/03 02:31:36;;;;;;;0.80;0.38;;;;;;;-0.25;49.08;102093.75;5025507;28;20052;-80
2022/04/03 02:34:04;;;;;;;0.95;0.35;;;;;;;-0.29;49.41;102097.06;5027150;28;20051;-80
2022/04/03 02:36:29;;;;;;;1.35;0.40;;;;;;;-0.33;50.06;102090.09;5024315;28;20032;-78
2022/04/03 02:38:55;;;;;;;2.47;0.45;;;;;;;-0.32;49.46;102094.44;5043207;28;20053;-79
2022/04/03 02:41:21;;;;;;;1.77;0.63;;;;;;;-0.09;48.67;102094.97;5051165;28;20184;-83
2022/04/03 02:43:46;;;;;;;6.35;1.00;;;;;;;-0.43;49.97;102093.28;5045361;28;20111;-83
2022/04/03 02:46:12;;;;;;;1.95;0.30;;;;;;;-0.30;49.59;102091.88;5047167;28;20036;-80
2022/04/03 02:48:38;;;;;;;4.85;0.20;;;;;;;-0.23;49.44;102083.50;5023030;28;20051;-80
2022/04/03 02:51:04;;;;;;;1.80;0.68;;;;;;;-0.14;49.07;102087.16;5028949;28;20115;-81
2022/04/03 02:53:29;;;;;;;3.00;0.30;;;;;;;-0.09;48.98;102078.69;5026884;28;20032;-78
2022/04/03 02:55:55;;;;;;;0.57;0.15;;;;;;;-0.21;48.87;102076.72;5044591;28;20059;-79
2022/04/03 02:58:20;;;;;;;2.03;0.20;;;;;;;-0.00;48.22;102078.91;5023574;28;20040;-82
2022/04/03 03:00:46;;;;;;;0.63;0.20;;;;;;;-0.07;48.52;102071.91;5027371;28;20037;-79
2022/04/03 03:03:12;;;;;;;4.38;0.40;;;;;;;-0.02;48.08;102071.16;5031087;28;20063;-81
2022/04/03 03:05:38;;;;;;;4.07;0.20;;;;;;;-0.15;48.44;102075.16;5042469;28;20072;-76
2022/04/03 03:08:04;;;;;;;0.98;0.20;;;;;;;-0.06;48.09;102069.34;5029826;28;20060;-79
2022/04/03 03:10:31;;;;;;;1.40;0.28;;;;;;;-0.08;47.89;102065.88;5044427;28;20087;-80
2022/04/03 03:12:56;;;;;;;0.90;0.20;;;;;;;-0.14;47.71;102074.31;5028365;28;20704;-80
2022/04/03 03:15:23;;;;;;;0.40;0.10;;;;;;;-0.25;48.12;102064.63;5022559;28;20060;-79
2022/04/03 03:17:49;;;;;;;0.68;0.22;;;;;;;-0.40;48.30;102065.97;5025560;28;20048;-80
2022/04/03 03:20:15;;;;;;;0.60;0.20;;;;;;;-0.54;48.96;102058.75;5043710;28;20316;-79
2022/04/03 03:22:41;;;;;;;1.60;0.25;;;;;;;-0.72;49.36;102060.03;5048016;28;20041;-78
2022/04/03 03:25:07;;;;;;;0.68;0.20;;;;;;;-0.60;48.88;102055.19;5028593;28;20227;-80
2022/04/03 03:27:34;;;;;;;0.52;0.10;;;;;;;-0.79;49.55;102063.28;5042585;28;20045;-83
2022/04/03 03:30:00;;;;;;;0.47;0.13;;;;;;;-0.88;49.92;102058.75;5028060;28;20047;-80
2022/04/03 03:32:25;;;;;;;0.90;0.22;;;;;;;-0.96;49.67;102060.25;5044969;28;20036;-80
2022/04/03 03:34:51;;;;;;;1.65;0.22;;;;;;;-1.03;49.36;102054.06;5043265;28;20064;-80
2022/04/03 03:37:17;;;;;;;2.78;0.20;;;;;;;-1.11;49.47;102055.53;5018546;28;20107;-78
2022/04/03 03:39:43;;;;;;;1.05;0.20;;;;;;;-1.27;49.79;102050.81;5025005;28;20036;-79
2022/04/03 03:42:08;;;;;;;0.75;0.20;;;;;;;-1.20;49.43;102045.91;5028187;28;20041;-81
2022/04/03 03:44:34;;;;;;;2.03;0.20;;;;;;;-1.28;49.42;102049.09;5043264;28;20390;-80
2022/04/03 03:46:59;;;;;;;0.90;0.25;;;;;;;-1.35;49.67;102042.00;5026879;28;20112;-81
2022/04/03 03:49:26;;;;;;;1.50;0.40;;;;;;;-1.40;49.90;102045.34;5011062;28;20441;-77
2022/04/03 03:51:53;;;;;;;0.85;0.20;;;;;;;-1.49;49.97;102039.94;5043984;28;20036;-79
2022/04/03 03:54:19;;;;;;;2.05;0.28;;;;;;;-1.50;50.15;102048.47;5045115;28;20033;-79
2022/04/03 03:56:45;;;;;;;1.60;0.47;;;;;;;-1.52;50.64;102046.69;5010716;28;20104;-80
2022/04/03 03:59:10;;;;;;;3.13;0.40;;;;;;;-1.55;50.27;102054.25;5027162;28;20033;-80
2022/04/03 04:01:36;;;;;;;1.27;0.47;;;;;;;-1.56;50.83;102048.28;5044758;28;20489;-81
2022/04/03 04:04:02;;;;;;;0.93;0.10;;;;;;;-1.56;51.25;102050.84;5044355;28;20051;-79
2022/04/03 04:06:28;;;;;;;1.08;0.30;;;;;;;-1.32;51.19;102060.06;5028925;28;20041;-79
2022/04/03 04:08:53;;;;;;;1.00;0.25;;;;;;;-1.22;51.05;102052.69;5031117;28;20040;-83
2022/04/03 04:11:19;;;;;;;0.65;0.20;;;;;;;-1.14;51.16;102060.59;5045029;28;20029;-81
2022/04/03 04:13:44;;;;;;;0.93;0.20;;;;;;;-1.14;51.18;102049.47;5023484;28;20128;-83
2022/04/03 04:16:10;;;;;;;0.63;0.20;;;;;;;-1.06;50.99;102043.75;5008135;28;20029;-78
2022/04/03 04:18:36;;;;;;;2.15;0.17;;;;;;;-1.13;51.11;102041.78;5026657;28;20045;-79
2022/04/03 04:21:03;;;;;;;1.98;0.17;;;;;;;-1.13;50.80;102036.66;5048950;28;20068;-77
2022/04/03 04:23:30;;;;;;;0.68;0.15;;;;;;;-1.11;50.62;102037.56;5043513;28;20140;-79
2022/04/03 04:25:55;;;;;;;0.98;0.15;;;;;;;-1.24;50.68;102038.06;5026438;28;20032;-78
2022/04/03 04:28:21;;;;;;;2.05;0.20;;;;;;;-1.28;50.68;102046.50;5021264;28;20044;-80
2022/04/03 04:30:46;;;;;;;0.88;0.30;;;;;;;-1.38;51.24;102050.50;5025644;28;20029;-80
2022/04/03 04:33:12;;;;;;;0.90;0.10;;;;;;;-1.44;51.24;102050.31;5028336;28;20562;-82
2022/04/03 04:35:37;;;;;;;2.35;0.20;;;;;;;-1.43;50.98;102042.69;5045265;28;20067;-79
2022/04/03 04:38:03;;;;;;;0.73;0.15;;;;;;;-1.49;51.02;102050.19;5008585;28;20095;-82
2022/04/03 04:40:29;;;;;;;3.42;0.82;;;;;;;-1.53;51.15;102053.50;5046247;28;20128;-79
2022/04/03 04:42:57;;;;;;;0.28;0.10;;;;;;;-1.53;51.41;102050.06;5025645;28;20087;-79
2022/04/03 04:45:25;;;;;;;0.60;0.28;;;;;;;-1.61;51.88;102050.69;5044171;28;20040;-81
2022/04/03 04:47:59;;;;;;;0.28;0.10;;;;;;;-1.63;51.88;102048.94;5023640;28;20065;-81
2022/04/03 04:50:28;;;;;;;0.60;0.10;;;;;;;-1.75;54.03;102048.59;5043679;28;20041;-80
2022/04/03 04:52:55;;;;;;;1.92;0.45;;;;;;;-1.52;53.94;102044.97;5024118;28;20040;-80
2022/04/03 04:55:20;;;;;;;4.38;0.30;;;;;;;-1.46;54.43;102041.72;5042029;28;20111;-81
2022/04/03 04:57:54;;;;;;;0.43;0.13;;;;;;;-1.08;53.64;102034.22;5041612;28;20119;-81
2022/04/03 05:00:21;;;;;;;0.98;0.10;;;;;;;-1.13;54.09;102039.22;5050793;28;20454;-80
2022/04/03 05:02:47;;;;;;;0.55;0.10;;;;;;;-0.84;53.65;102034.91;5025426;28;20045;-80
2022/04/03 05:05:14;;;;;;;1.80;0.32;;;;;;;-0.62;52.95;102031.16;5044384;28;20040;-80
2022/04/03 05:07:40;;;;;;;0.73;0.20;;;;;;;-0.45;52.40;102039.31;5027371;28;20044;-80
2022/04/03 05:10:07;;;;;;;1.45;0.30;;;;;;;-0.48;52.64;102038.34;5027696;28;20371;-82
2022/04/03 05:12:34;;;;;;;5.10;0.60;;;;;;;-0.31;52.26;102042.19;5025578;28;20033;-82
2022/04/03 05:14:59;;;;;;;0.65;0.10;;;;;;;-0.43;52.90;102037.66;5010765;28;20024;-79
2022/04/03 05:17:26;;;;;;;0.90;0.20;;;;;;;-0.49;52.27;102045.19;5040730;28;20045;-82
2022/04/03 05:19:53;;;;;;;3.22;0.10;;;;;;;-0.20;52.03;102040.75;5041092;28;20033;-81
2022/04/03 05:22:23;;;;;;;3.55;0.40;;;;;;;-0.23;51.55;102050.97;5025652;28;20281;-82
2022/04/03 05:24:55;;;;;;;0.70;0.17;;;;;;;-0.07;51.24;102048.75;5011410;28;20122;-82
2022/04/03 05:27:21;;;;;;;2.17;0.40;;;;;;;-0.05;51.42;102041.97;5045777;28;20153;-79
2022/04/03 05:29:47;;;;;;;0.20;0.00;;;;;;;-0.11;51.33;102046.94;5012234;28;20079;-81
2022/04/03 05:32:12;;;;;;;5.18;0.28;;;;;;;-0.13;51.27;102046.91;5027280;28;20064;-80
2022/04/03 05:34:39;;;;;;;0.65;0.20;;;;;;;-0.20;51.25;102050.16;5026850;28;20114;-81
2022/04/03 05:37:05;;;;;;;0.40;0.10;;;;;;;-0.17;51.02;102050.22;5050391;28;20041;-82
2022/04/03 05:39:31;;;;;;;0.60;0.10;;;;;;;-0.18;51.05;102049.38;5044239;28;20025;-82
2022/04/03 05:41:56;;;;;;;0.20;0.10;;;;;;;-0.14;51.05;102053.75;5004923;28;20627;-79
2022/04/03 05:44:23;;;;;;;0.47;0.10;;;;;;;-0.04;51.09;102046.25;5021240;28;20547;-82
2022/04/03 05:46:49;;;;;;;1.77;0.28;;;;;;;-0.00;51.09;102040.34;5026990;28;20037;-80
2022/04/03 05:49:15;;;;;;;0.80;0.45;;;;;;;0.11;50.68;102045.75;5028793;28;20144;-80
2022/04/03 05:51:42;;;;;;;2.90;0.10;;;;;;;0.02;50.64;102043.81;5021120;28;20132;-78
2022/04/03 05:54:08;;;;;;;1.95;0.32;;;;;;;0.09;50.43;102048.25;5040220;28;20045;-80
2022/04/03 05:56:34;;;;;;;2.70;0.20;;;;;;;0.13;50.49;102046.63;5027893;28;20036;-80
2022/04/03 05:59:00;;;;;;;0.77;0.15;;;;;;;0.16;50.87;102059.56;5029098;28;20041;-81
2022/04/03 06:01:25;;;;;;;3.13;0.10;;;;;;;0.30;50.57;102054.72;5045077;28;20403;-81
2022/04/03 06:03:51;;;;;;;0.57;0.10;;;;;;;0.37;50.86;102075.47;5027165;28;20100;-79
2022/04/03 06:06:17;;;;;;;2.85;0.10;;;;;;;0.25;51.22;102076.03;5029635;28;20067;-82
2022/04/03 06:08:43;;;;;;;0.70;0.20;;;;;;;-0.27;53.10;102086.84;5030908;28;20040;-82
2022/04/03 06:11:09;;;;;;;1.23;0.10;;;;;;;0.08;52.56;102082.53;5047740;28;20025;-81
2022/04/03 06:13:35;;;;;;;3.50;0.10;;;;;;;0.11;52.60;102074.88;5028821;28;20055;-80
2022/04/03 06:16:00;;;;;;;3.08;0.30;;;;;;;0.55;52.35;102068.97;5007607;28;20041;-81
2022/04/03 06:18:26;;;;;;;4.03;0.30;;;;;;;2.19;51.09;102061.53;5045293;28;20120;-80
2022/04/03 06:20:52;;;;;;;0.40;0.10;;;;;;;3.42;46.63;102059.53;5020114;28;20033;-80
2022/04/03 06:23:19;;;;;;;3.15;0.10;;;;;;;4.18;45.78;102057.47;5042459;28;20140;-81
2022/04/03 06:25:47;;;;;;;0.93;0.13;;;;;;;4.10;43.80;102066.94;5044414;28;20060;-82
2022/04/03 06:28:13;;;;;;;3.17;1.35;;;;;;;3.79;44.75;102055.53;5030588;28;20108;-84
2022/04/03 06:30:38;;;;;;;0.50;0.10;;;;;;;3.27;44.73;102055.03;5033529;28;20120;-80
2022/04/03 06:33:04;;;;;;;0.43;0.10;;;;;;;2.96;45.67;102071.13;5035213;28;20049;-82
2022/04/03 06:35:30;;;;;;;2.97;0.30;;;;;;;3.29;44.62;102058.53;5031921;28;20422;-84
2022/04/03 06:37:56;;;;;;;2.05;0.10;;;;;;;3.51;45.83;102068.22;5051157;28;20042;-85
2022/04/03 06:40:23;;;;;;;0.63;0.10;;;;;;;3.55;45.48;102069.13;5030312;28;20038;-87
2022/04/03 06:42:49;;;;;;;3.08;0.20;;;;;;;4.00;45.32;102068.59;5041965;28;20128;-86
2022/04/03 06:45:15;;;;;;;1.10;0.10;;;;;;;4.68;44.87;102068.97;5013363;28;20055;-82
2022/04/03 06:47:41;;;;;;;3.58;1.38;;;;;;;5.40;42.53;102079.50;5030838;28;20053;-80
2022/04/03 06:50:08;;;;;;;2.78;0.20;;;;;;;4.79;43.11;102066.41;5032346;28;20037;-82
2022/04/03 06:52:36;;;;;;;2.67;0.10;;;;;;;4.63;41.65;102078.41;5028843;28;20084;-85
2022/04/03 06:55:05;;;;;;;0.73;0.30;;;;;;;4.02;43.99;102066.88;5045260;28;20526;-81
2022/04/03 06:57:31;;;;;;;6.47;0.22;;;;;;;7.70;38.33;102066.56;5003836;28;20506;-80
2022/04/03 06:59:57;;;;;;;2.10;0.30;;;;;;;9.62;32.37;102058.03;5050437;28;20064;-82
2022/04/03 07:02:23;;;;;;;0.57;0.10;;;;;;;11.80;30.71;102050.78;5043359;28;20114;-79
2022/04/03 07:04:48;;;;;;;2.38;0.43;;;;;;;12.92;29.04;102059.84;5029074;28;20490;-80
2022/04/03 07:07:22;;;;;;;1.65;0.40;;;;;;;12.29;28.69;102073.88;5029337;28;20133;-80
2022/04/03 07:09:48;;;;;;;0.47;0.10;;;;;;;10.64;30.16;102061.31;5025974;28;20033;-83
2022/04/03 07:12:14;;;;;;;2.20;0.10;;;;;;;9.16;31.78;102062.22;5029148;28;20049;-79
2022/04/03 07:14:40;;;;;;;0.70;0.10;;;;;;;7.88;36.33;102066.38;5036893;28;20091;-80
2022/04/03 07:17:06;;;;;;;0.63;0.50;;;;;;;8.04;35.84;102067.09;5013415;28;20025;-83
2022/04/03 07:19:34;;;;;;;1.70;0.20;;;;;;;7.51;36.08;102061.47;5025237;28;20036;-82
2022/04/03 07:22:00;;;;;;;0.50;0.10;;;;;;;6.50;38.38;102068.13;5047766;28;20138;-79
2022/04/03 07:24:33;;;;;;;0.45;0.00;;;;;;;8.48;35.69;102063.13;5034062;28;20108;-82
2022/04/03 07:27:16;;;;;;;0.75;0.03;;;;;;;10.09;31.59;102062.41;5016016;28;20025;-83
2022/04/03 07:29:44;;;;;;;4.05;0.43;;;;;;;11.68;30.14;102062.38;5010087;28;20067;-82
2022/04/03 07:32:10;;;;;;;0.82;0.10;;;;;;;10.79;29.26;102060.13;5006614;28;20044;-81
2022/04/03 07:34:52;;;;;;;1.77;0.10;;;;;;;9.47;31.95;102056.53;5042688;28;20029;-79
2022/04/03 07:37:20;;;;;;;3.38;0.10;;;;;;;9.53;32.57;102061.66;5038974;28;20045;-81
2022/04/03 07:39:49;;;;;;;0.43;0.10;;;;;;;7.31;36.42;102065.94;5044139;28;20139;-80
2022/04/03 07:42:14;;;;;;;0.55;0.10;;;;;;;6.08;38.66;102064.78;5046213;28;20041;-80
2022/04/03 07:44:40;;;;;;;3.28;0.10;;;;;;;5.13;41.76;102067.38;5020576;28;20033;-81
2022/04/03 07:47:06;;;;;;;0.47;0.10;;;;;;;4.86;41.72;102069.88;5025310;28;20037;-81
2022/04/03 07:49:31;;;;;;;0.77;0.10;;;;;;;5.23;42.97;102063.97;5045867;28;20036;-81
2022/04/03 07:51:57;;;;;;;4.68;0.10;;;;;;;5.96;41.83;102062.19;5048596;28;20037;-79
2022/04/03 07:54:22;;;;;;;1.10;0.15;;;;;;;8.00;39.76;102057.56;5047805;28;20039;-81
2022/04/03 07:56:56;;;;;;;1.45;0.10;;;;;;;10.29;34.32;102059.41;5039558;28;20029;-79
2022/04/03 07:59:24;;;;;;;5.10;0.98;;;;;;;9.91;32.38;102053.19;5042843;28;20415;-78
2022/04/03 08:01:51;;;;;;;1.50;0.15;;;;;;;8.23;35.50;102057.34;5025853;28;20037;-81
2022/04/03 08:04:17;;;;;;;4.75;0.50;;;;;;;6.79;37.76;102063.69;5044615;28;20091;-78
2022/04/03 08:06:43;;;;;;;4.45;0.30;;;;;;;5.67;41.19;102065.69;5025381;28;20040;-78
2022/04/03 08:09:08;;;;;;;4.43;1.38;;;;;;;5.12;42.45;102072.56;5028129;28;20115;-77
2022/04/03 08:11:34;;;;;;;1.75;0.20;;;;;;;4.09;44.99;102067.78;5027992;28;20087;-80
2022/04/03 08:14:00;;;;;;;1.85;0.35;;;;;;;4.54;45.14;102078.38;5004935;28;20049;-81
2022/04/03 08:16:26;;;;;;;2.60;0.22;;;;;;;5.72;43.17;102065.69;5022347;28;20095;-82
2022/04/03 08:18:52;;;;;;;0.75;0.15;;;;;;;7.83;39.32;102062.97;5027429;28;20060;-81
2022/04/03 08:21:18;;;;;;;1.85;0.20;;;;;;;10.25;36.55;102062.13;5023520;28;20143;-80
2022/04/03 08:23:45;;;;;;;1.65;0.10;;;;;;;11.41;33.44;102049.09;5019637;28;20041;-79
2022/04/03 08:26:13;;;;;;;1.35;0.10;;;;;;;11.51;31.52;102054.09;5024845;28;20505;-80
2022/04/03 08:28:39;;;;;;;3.33;0.20;;;;;;;10.22;32.57;102058.69;5027423;28;20052;-80
2022/04/03 08:31:04;;;;;;;4.18;0.28;;;;;;;8.05;36.52;102063.63;5023275;28;20039;-82
2022/04/03 08:33:30;;;;;;;8.38;0.22;;;;;;;6.24;38.75;102070.81;5043352;28;20089;-80
2022/04/03 08:35:57;;;;;;;2.63;0.20;;;;;;;5.61;40.14;102073.50;5015908;28;20044;-82
2022/04/03 08:38:22;;;;;;;5.25;0.20;;;;;;;5.13;40.87;102069.97;5021621;28;20062;-80
2022/04/03 08:40:48;;;;;;;6.18;0.38;;;;;;;5.30;40.99;102072.59;5021253;28;20047;-82
2022/04/03 08:43:13;;;;;;;3.45;0.30;;;;;;;8.71;36.29;102064.59;5022897;28;20048;-81
2022/04/03 08:45:39;;;;;;;6.07;1.35;;;;;;;10.92;30.51;102050.25;5039984;28;20644;-81
2022/04/03 08:48:06;;;;;;;3.72;1.60;;;;;;;11.40;31.01;102057.00;5022334;28;20105;-80
2022/04/03 08:50:39;;;;;;;2.65;0.75;;;;;;;9.54;30.41;102056.41;5037210;28;20117;-79
2022/04/03 08:53:07;;;;;;;5.32;0.98;;;;;;;7.28;34.29;102063.38;5044685;28;20043;-81
2022/04/03 08:55:33;;;;;;;2.40;0.30;;;;;;;6.49;36.14;102062.97;5004623;28;20067;-80
2022/04/03 08:57:59;;;;;;;5.25;1.25;;;;;;;6.26;36.55;102062.97;5023626;28;20080;-81
2022/04/03 09:00:25;;;;;;;6.05;0.40;;;;;;;8.14;32.53;102062.66;5039333;28;20067;-80
2022/04/03 09:02:51;;;;;;;4.47;0.30;;;;;;;9.71;31.15;102053.50;5036520;28;20797;-80
2022/04/03 09:05:17;;;;;;;2.95;0.30;;;;;;;9.67;30.75;102059.66;5008535;28;20048;-79
2022/04/03 09:07:44;;;;;;;2.30;0.35;;;;;;;9.99;30.07;102050.41;5015214;28;20490;-83
2022/04/03 09:10:15;;;;;;;8.05;0.90;;;;;;;9.99;29.94;102056.53;5004405;28;20028;-80
2022/04/03 09:12:48;;;;;;;8.20;0.57;;;;;;;9.45;30.70;102068.75;5014771;28;20044;-80
2022/04/03 09:15:19;;;;;;;6.05;0.50;;;;;;;8.32;32.48;102069.41;5003516;28;20052;-80
2022/04/03 09:17:46;;;;;;;3.30;0.50;;;;;;;5.94;35.36;102066.53;5019537;28;20041;-80
2022/04/03 09:20:26;;;;;;;1.25;0.20;;;;;;;6.02;34.79;102075.16;5039904;28;20340;-79
2022/04/03 09:22:54;;;;;;;1.70;0.50;;;;;;;6.70;34.93;102069.78;5039313;28;20521;-79
2022/04/03 09:25:36;;;;;;;2.05;0.45;;;;;;;6.16;34.76;102072.53;5027163;28;20464;-81
2022/04/03 09:28:04;;;;;;;6.30;0.32;;;;;;;7.66;32.70;102065.72;5020361;28;20053;-80
2022/04/03 09:30:32;;;;;;;4.40;0.73;;;;;;;7.82;30.78;102065.56;5023844;28;20036;-81
2022/04/03 09:32:59;;;;;;;1.00;0.40;;;;;;;7.59;30.39;102058.84;5001307;28;20495;-80
2022/04/03 09:35:29;;;;;;;2.20;0.10;;;;;;;8.84;29.86;102066.16;5038484;28;20119;-80
2022/04/03 09:38:08;;;;;;;2.60;0.60;;;;;;;7.43;32.12;102065.00;5022691;28;20957;-81
2022/04/03 09:40:36;;;;;;;4.32;0.32;;;;;;;7.67;32.28;102064.84;5038333;28;20375;-80
2022/04/03 09:43:27;;;;;;;4.85;0.20;;;;;;;7.81;33.33;102059.50;5040263;28;20044;-82
2022/04/03 09:46:04;;;;;;;3.58;0.40;;;;;;;7.98;32.35;102067.16;4999460;28;20036;-80
2022/04/03 09:48:32;;;;;;;2.55;0.30;;;;;;;8.92;31.66;102064.31;5041008;28;20587;-80
2022/04/03 09:51:13;;;;;;;3.42;0.22;;;;;;;7.97;30.08;102047.19;5024035;28;20497;-79
2022/04/03 09:53:51;;;;;;;3.72;0.75;;;;;;;7.38;32.50;102053.75;5021440;28;20048;-80
2022/04/03 09:56:26;;;;;;;3.10;0.10;;;;;;;8.00;31.04;102062.78;5040349;28;20095;-79
2022/04/03 09:58:52;;;;;;;1.75;0.20;;;;;;;8.73;30.04;102058.47;5034812;28;20493;-82
2022/04/03 10:01:23;;;;;;;0.65;0.35;;;;;;;8.11;30.59;102047.94;5006470;28;20087;-79
2022/04/03 10:03:49;;;;;;;3.58;0.10;;;;;;;7.97;31.25;102057.63;5006557;28;20041;-79
2022/04/03 10:06:17;;;;;;;2.30;0.10;;;;;;;8.64;30.54;102052.50;5020720;28;20029;-79
2022/04/03 10:08:48;;;;;;;0.77;0.00;;;;;;;10.00;29.95;102047.78;5037569;28;20135;-79
2022/04/03 10:11:17;;;;;;;1.73;0.20;;;;;;;9.43;28.74;102045.25;5036075;28;20025;-80
2022/04/03 10:13:43;;;;;;;1.67;0.20;;;;;;;8.34;30.48;102046.81;5015888;28;20048;-81
2022/04/03 10:16:12;;;;;;;0.47;0.00;;;;;;;7.38;32.49;102051.16;5037077;28;20112;-82
2022/04/03 10:18:39;;;;;;;2.15;0.17;;;;;;;7.43;32.32;102037.25;5019851;28;20049;-79
2022/04/03 10:21:11;;;;;;;2.08;0.10;;;;;;;7.35;32.65;102040.78;5005933;28;20032;-79
2022/04/03 10:23:40;;;;;;;5.77;0.67;;;;;;;7.44;31.86;102038.13;5023390;28;20511;-79
2022/04/03 10:26:08;;;;;;;0.82;0.10;;;;;;;8.44;30.99;102040.59;5027126;28;20321;-77
2022/04/03 10:28:35;;;;;;;3.33;0.00;;;;;;;8.82;27.91;102036.66;5025906;28;20052;-78
2022/04/03 10:31:07;;;;;;;0.65;0.20;;;;;;;7.94;28.08;102044.63;5025308;28;20028;-81
2022/04/03 10:33:42;;;;;;;3.28;0.50;;;;;;;8.19;29.71;102040.03;5038674;28;20050;-81
2022/04/03 10:36:10;;;;;;;3.60;0.60;;;;;;;8.39;29.42;102042.41;5020029;28;20068;-80
2022/04/03 10:38:44;;;;;;;9.55;1.27;;;;;;;8.12;30.57;102038.38;5017419;28;20095;-79
2022/04/03 10:41:30;;;;;;;3.97;0.80;;;;;;;8.43;30.94;102041.47;5005939;28;20044;-81
2022/04/03 10:44:25;;;;;;;13.65;2.47;;;;;;;8.89;29.76;102033.06;5019092;28;20052;-80
2022/04/03 10:47:05;;;;;;;2.33;0.15;;;;;;;9.01;29.22;102036.38;5020451;28;20670;-78
2022/04/03 10:49:32;;;;;;;4.85;0.80;;;;;;;9.65;28.86;102027.50;5037277;28;20043;-77
2022/04/03 10:52:08;;;;;;;7.68;2.67;;;;;;;8.94;27.42;102025.16;5038364;28;20066;-80
2022/04/03 10:54:43;;;;;;;3.25;0.22;;;;;;;8.24;29.31;102034.75;5041791;28;20058;-81
2022/04/03 10:57:42;;;;;;;5.53;0.90;;;;;;;7.76;29.93;102032.66;5024205;28;20150;-83
2022/04/03 11:00:14;;;;;;;9.48;2.38;;;;;;;8.73;30.06;102026.34;5027372;28;20081;-80
2022/04/03 11:02:41;;;;;;;2.45;0.30;;;;;;;7.83;30.71;102018.72;5035583;28;20048;-82
2022/04/03 11:05:22;;;;;;;2.65;0.50;;;;;;;8.30;29.83;102026.88;5040840;28;20086;-78
2022/04/03 11:07:52;;;;;;;6.15;1.52;;;;;;;8.32;31.17;102025.13;5041129;28;20394;-80
2022/04/03 11:10:55;;;;;;;2.90;0.55;;;;;;;8.33;30.41;102011.19;5038128;28;20090;-79
2022/04/03 11:13:22;;;;;;;9.50;1.73;;;;;;;8.65;30.91;102018.63;5051751;28;20581;-79
2022/04/03 11:15:56;;;;;;;3.65;1.35;;;;;;;8.72;30.05;102007.25;5008916;28;20040;-78
2022/04/03 11:18:29;;;;;;;11.15;2.10;;;;;;;8.57;31.40;102016.09;5005398;28;20052;-81
2022/04/03 11:21:08;;;;;;;9.65;1.98;;;;;;;7.05;33.33;102019.34;5010968;28;20032;-81
2022/04/03 11:23:43;;;;;;;3.35;0.95;;;;;;;6.45;33.85;102012.75;5040868;28;20068;-77
2022/04/03 11:26:09;;;;;;;13.00;3.95;;;;;;;6.84;33.74;102005.63;5025492;28;20032;-81
2022/04/03 11:28:35;;;;;;;2.80;0.50;;;;;;;7.36;32.18;102016.53;5044494;28;20103;-81
2022/04/03 11:31:01;;;;;;;3.72;0.20;;;;;;;7.76;30.95;102003.16;5003848;28;20068;-79